Time;durP1;ratioP1;P1;durP2;ratioP2;P2;SDS_P1;SDS_P2;PMS_P1;PMS_P2;Temp;Humidity;BMP_temperature;BMP_pressure;BME280_temperature;BME280_humidity;BME280_pressure;Samples;Min_cycle;Max_cycle;Signal;HPM_P1;HPM_P2
2021/03/19 00:02:18;;;;;;;26.48;14.32;;;2.50;99.90;;;;;;5118879;27;20026;-57
2021/03/19 00:04:44;;;;;;;24.85;14.35;;;2.50;99.90;;;;;;5128695;27;20019;-56
2021/03/19 00:07:09;;;;;;;24.33;13.63;;;2.40;99.90;;;;;;5121763;27;20011;-56
2021/03/19 00:09:35;;;;;;;23.55;15.30;;;2.30;99.90;;;;;;5117688;27;20039;-58
2021/03/19 00:12:00;;;;;;;20.80;13.63;;;2.40;99.90;;;;;;5125432;27;20279;-60
2021/03/19 00:14:26;;;;;;;29.02;16.27;;;2.30;99.90;;;;;;5130609;27;20058;-59
2021/03/19 00:16:51;;;;;;;22.88;13.60;;;2.30;99.90;;;;;;5118259;27;20036;-58
2021/03/19 00:19:19;;;;;;;23.27;14.63;;;2.30;99.90;;;;;;5104644;27;21208;-57
2021/03/19 00:21:44;;;;;;;25.20;15.45;;;2.20;99.90;;;;;;5119521;27;20552;-55
2021/03/19 00:24:10;;;;;;;27.27;13.98;;;2.20;99.90;;;;;;5119345;27;20102;-54
2021/03/19 00:26:36;;;;;;;22.67;14.52;;;2.20;99.90;;;;;;5119280;27;20106;-57
2021/03/19 00:29:01;;;;;;;23.17;14.68;;;2.10;99.90;;;;;;5133530;27;20034;-58
2021/03/19 00:31:27;;;;;;;30.60;17.10;;;2.10;99.90;;;;;;5119362;27;20027;-57
2021/03/19 00:33:53;;;;;;;63.72;21.15;;;1.90;99.90;;;;;;5119970;27;20548;-54
2021/03/19 00:36:19;;;;;;;46.65;22.08;;;1.90;99.90;;;;;;5119912;27;20033;-56
2021/03/19 00:38:44;;;;;;;51.25;21.27;;;1.70;99.90;;;;;;5124741;27;20079;-56
2021/03/19 00:41:10;;;;;;;39.83;20.95;;;1.60;99.90;;;;;;5119804;27;20059;-59
2021/03/19 00:43:35;;;;;;;37.65;20.60;;;1.50;99.90;;;;;;5124820;27;20100;-57
2021/03/19 00:46:01;;;;;;;40.60;20.70;;;1.40;99.90;;;;;;5120962;28;20127;-60
2021/03/19 00:48:27;;;;;;;39.05;20.83;;;1.30;99.90;;;;;;5118335;28;20027;-59
2021/03/19 00:50:54;;;;;;;40.30;21.35;;;1.20;99.90;;;;;;5122164;27;20484;-55
2021/03/19 00:53:20;;;;;;;40.33;21.15;;;1.20;99.90;;;;;;5117244;27;20097;-55
2021/03/19 00:55:46;;;;;;;43.47;19.88;;;1.30;99.90;;;;;;5119844;28;20476;-55
2021/03/19 00:58:12;;;;;;;34.42;19.60;;;1.40;99.90;;;;;;5117705;28;20056;-54
2021/03/19 01:00:38;;;;;;;32.42;18.00;;;1.60;99.90;;;;;;5125764;27;20033;-55
2021/03/19 01:03:06;;;;;;;32.75;17.55;;;1.70;99.90;;;;;;5111623;28;20015;-54
2021/03/19 01:05:38;;;;;;;31.52;17.33;;;1.90;99.90;;;;;;5121628;27;20340;-56
2021/03/19 01:08:04;;;;;;;28.70;16.50;;;2.00;99.90;;;;;;5120350;28;20020;-59
2021/03/19 01:10:34;;;;;;;29.13;16.40;;;2.00;99.90;;;;;;5118640;27;20012;-59
2021/03/19 01:13:00;;;;;;;29.23;15.93;;;2.10;99.90;;;;;;5119274;27;20028;-55
2021/03/19 01:15:27;;;;;;;28.83;15.20;;;2.10;99.90;;;;;;5124210;27;20076;-56
2021/03/19 01:17:53;;;;;;;23.17;14.95;;;2.20;99.90;;;;;;5114844;28;20019;-57
2021/03/19 01:20:20;;;;;;;28.70;14.88;;;2.20;99.90;;;;;;5119598;28;20103;-56
2021/03/19 01:22:46;;;;;;;22.85;14.80;;;2.20;99.90;;;;;;5114949;27;20666;-54
2021/03/19 01:25:17;;;;;;;28.00;14.90;;;2.20;99.90;;;;;;5118600;27;20118;-58
2021/03/19 01:27:43;;;;;;;26.98;15.00;;;2.30;99.90;;;;;;5124035;27;20377;-57
2021/03/19 01:30:19;;;;;;;25.23;14.98;;;2.30;99.90;;;;;;5084580;27;20039;-55
2021/03/19 01:32:45;;;;;;;23.73;15.05;;;2.30;99.90;;;;;;5126857;27;20026;-58
2021/03/19 01:35:12;;;;;;;20.40;13.18;;;2.30;99.90;;;;;;5119251;27;20049;-56
2021/03/19 01:37:38;;;;;;;25.90;15.20;;;2.20;99.90;;;;;;5121304;27;20130;-52
2021/03/19 01:40:08;;;;;;;22.27;14.70;;;2.30;99.90;;;;;;5128673;27;20499;-58
2021/03/19 01:42:38;;;;;;;26.75;15.13;;;2.30;99.90;;;;;;5124219;27;20049;-56
2021/03/19 01:45:41;;;;;;;25.92;15.80;;;2.30;99.90;;;;;;5129789;27;20483;-54
2021/03/19 01:48:44;;;;;;;23.23;15.10;;;2.30;99.90;;;;;;5127474;27;20023;-56
2021/03/19 01:51:47;;;;;;;25.33;15.82;;;2.30;99.90;;;;;;5125689;27;20016;-56
2021/03/19 01:54:50;;;;;;;24.63;15.98;;;2.20;99.90;;;;;;5119905;27;20053;-58
2021/03/19 01:57:53;;;;;;;27.17;15.27;;;2.10;99.90;;;;;;5125649;27;20023;-55
2021/03/19 02:00:55;;;;;;;28.63;17.35;;;2.10;99.90;;;;;;5136767;27;20110;-55
2021/03/19 02:03:58;;;;;;;24.83;16.42;;;2.00;99.90;;;;;;5127311;27;20486;-56
2021/03/19 02:07:01;;;;;;;28.90;16.65;;;1.90;99.90;;;;;;5126893;27;20015;-55
2021/03/19 02:10:04;;;;;;;35.40;17.98;;;1.80;99.90;;;;;;5126892;27;20451;-54
2021/03/19 02:13:07;;;;;;;30.73;18.92;;;1.80;99.90;;;;;;5124411;27;20031;-57
2021/03/19 02:16:10;;;;;;;34.63;19.08;;;1.70;99.90;;;;;;5133373;27;20032;-55
2021/03/19 02:19:13;;;;;;;35.85;19.60;;;1.60;99.90;;;;;;5119981;27;20051;-56
2021/03/19 02:22:16;;;;;;;33.25;19.00;;;1.60;99.90;;;;;;5132491;27;20050;-55
2021/03/19 02:25:18;;;;;;;33.10;19.30;;;1.60;99.90;;;;;;5129792;27;20424;-55
2021/03/19 02:28:21;;;;;;;35.88;20.25;;;1.50;99.90;;;;;;5124057;27;20022;-53
2021/03/19 02:31:12;;;;;;;33.05;20.67;;;1.60;99.90;;;;;;5119718;27;20023;-54
2021/03/19 02:33:54;;;;;;;35.60;19.63;;;1.60;99.90;;;;;;5130482;27;20126;-57
2021/03/19 02:36:22;;;;;;;35.65;19.55;;;1.50;99.90;;;;;;5132343;27;20027;-56
2021/03/19 02:38:49;;;;;;;40.60;21.15;;;1.50;99.90;;;;;;5127956;27;20027;-60
2021/03/19 02:41:15;;;;;;;36.67;21.65;;;1.50;99.90;;;;;;5127261;27;20026;-55
2021/03/19 02:43:41;;;;;;;38.10;21.42;;;1.50;99.90;;;;;;5135786;27;20057;-54
2021/03/19 02:46:07;;;;;;;38.38;21.27;;;1.40;99.90;;;;;;5128293;27;20022;-59
2021/03/19 02:48:33;;;;;;;34.03;21.20;;;1.40;99.90;;;;;;5134895;27;20030;-59
2021/03/19 02:50:59;;;;;;;35.85;20.33;;;1.40;99.90;;;;;;5128802;27;20093;-60
2021/03/19 02:53:28;;;;;;;38.08;22.90;;;1.30;99.90;;;;;;5122066;27;20051;-55
2021/03/19 02:55:55;;;;;;;33.45;21.50;;;1.30;99.90;;;;;;5130590;27;20038;-54
2021/03/19 02:58:21;;;;;;;39.58;22.27;;;1.20;99.90;;;;;;5121091;27;20015;-55
2021/03/19 03:00:47;;;;;;;43.25;25.00;;;1.20;99.90;;;;;;5130484;27;20072;-56
2021/03/19 03:03:13;;;;;;;42.45;23.10;;;1.10;99.90;;;;;;5122515;27;20025;-59
2021/03/19 03:05:39;;;;;;;42.38;22.90;;;1.10;99.90;;;;;;5126928;27;20028;-56
2021/03/19 03:08:06;;;;;;;45.17;24.35;;;1.10;99.90;;;;;;5127715;27;20552;-55
2021/03/19 03:10:34;;;;;;;47.15;24.05;;;1.10;99.90;;;;;;5119036;27;20031;-54
2021/03/19 03:13:00;;;;;;;39.10;22.95;;;1.10;99.90;;;;;;5112825;27;20126;-53
2021/03/19 03:15:26;;;;;;;46.00;26.17;;;1.10;99.90;;;;;;5122223;27;20103;-55
2021/03/19 03:17:52;;;;;;;45.63;23.10;;;1.10;99.90;;;;;;5123178;27;20020;-56
2021/03/19 03:20:23;;;;;;;45.25;25.02;;;1.00;99.90;;;;;;5118284;27;20035;-56
2021/03/19 03:22:49;;;;;;;48.42;22.90;;;1.00;99.90;;;;;;5118502;27;20019;-57
2021/03/19 03:25:16;;;;;;;37.85;21.35;;;1.00;99.90;;;;;;5120512;27;20030;-54
2021/03/19 03:27:42;;;;;;;40.63;22.20;;;1.10;99.90;;;;;;5130181;27;20423;-57
2021/03/19 03:30:16;;;;;;;40.45;22.88;;;1.10;99.90;;;;;;5119326;27;20038;-54
2021/03/19 03:32:42;;;;;;;39.50;23.23;;;1.10;99.90;;;;;;5107007;27;20043;-53
2021/03/19 03:35:08;;;;;;;40.33;21.73;;;1.00;99.90;;;;;;5127574;27;20031;-55
2021/03/19 03:37:34;;;;;;;37.53;22.33;;;1.00;99.90;;;;;;5124068;27;20035;-54
2021/03/19 03:40:00;;;;;;;38.57;21.30;;;0.90;99.90;;;;;;5122763;27;20023;-52
2021/03/19 03:42:25;;;;;;;37.90;19.65;;;0.90;99.90;;;;;;5112734;27;20058;-57
2021/03/19 03:44:51;;;;;;;31.63;19.50;;;0.90;99.90;;;;;;5119620;27;20058;-57
2021/03/19 03:47:16;;;;;;;37.80;20.03;;;0.80;99.90;;;;;;5118652;27;20028;-57
2021/03/19 03:49:42;;;;;;;35.23;19.17;;;0.90;99.90;;;;;;5114261;27;20031;-55
2021/03/19 03:52:08;;;;;;;35.90;19.27;;;0.90;99.90;;;;;;5129987;27;20598;-54
2021/03/19 03:54:33;;;;;;;41.70;18.92;;;0.90;99.90;;;;;;5130133;27;20031;-57
2021/03/19 03:56:59;;;;;;;30.45;18.50;;;0.90;99.90;;;;;;5121916;27;20061;-55
2021/03/19 03:59:25;;;;;;;31.83;18.57;;;0.90;99.90;;;;;;5127875;27;20030;-56
2021/03/19 04:01:53;;;;;;;32.70;17.97;;;0.90;99.90;;;;;;5124314;27;20020;-56
2021/03/19 04:04:19;;;;;;;32.00;17.27;;;0.80;99.90;;;;;;5124646;27;20056;-56
2021/03/19 04:06:44;;;;;;;37.58;18.77;;;0.90;99.90;;;;;;5129135;27;20058;-57
2021/03/19 04:09:10;;;;;;;34.13;18.42;;;0.80;99.90;;;;;;5124542;27;20518;-56
2021/03/19 04:11:36;;;;;;;33.40;18.40;;;0.90;99.90;;;;;;5127107;27;20035;-55
2021/03/19 04:14:01;;;;;;;37.60;18.47;;;0.90;99.90;;;;;;5124425;27;20091;-56
2021/03/19 04:16:27;;;;;;;34.47;19.03;;;1.00;99.90;;;;;;5126790;27;20031;-53
2021/03/19 04:18:53;;;;;;;33.80;17.75;;;1.00;99.90;;;;;;5123371;27;20027;-55
2021/03/19 04:21:20;;;;;;;31.97;17.10;;;1.00;99.90;;;;;;5120849;27;20050;-56
2021/03/19 04:23:50;;;;;;;37.03;17.63;;;1.00;99.90;;;;;;5126129;27;20072;-56
2021/03/19 04:26:30;;;;;;;32.42;18.13;;;1.00;99.90;;;;;;5120875;27;20051;-57
2021/03/19 04:28:56;;;;;;;31.33;15.82;;;1.00;99.90;;;;;;5118992;27;20446;-54
2021/03/19 04:31:23;;;;;;;32.78;17.35;;;1.00;99.90;;;;;;5111780;27;20042;-57
2021/03/19 04:33:49;;;;;;;28.95;16.98;;;1.00;99.90;;;;;;5118616;27;20072;-56
2021/03/19 04:36:31;;;;;;;33.67;17.13;;;1.00;99.90;;;;;;5117458;27;20107;-54
2021/03/19 04:39:00;;;;;;;31.83;17.80;;;1.00;99.90;;;;;;5116855;27;20456;-56
2021/03/19 04:41:28;;;;;;;34.50;17.52;;;0.90;99.90;;;;;;5117414;27;20068;-55
2021/03/19 04:43:53;;;;;;;29.37;16.53;;;0.90;99.90;;;;;;5121769;27;20072;-54
2021/03/19 04:46:19;;;;;;;32.45;16.35;;;0.90;99.90;;;;;;5120367;27;20024;-53
2021/03/19 04:48:45;;;;;;;34.73;17.00;;;0.90;99.90;;;;;;5115417;27;20534;-57
2021/03/19 04:51:10;;;;;;;33.47;18.00;;;0.90;99.90;;;;;;5119425;27;20030;-56
2021/03/19 04:53:36;;;;;;;25.77;15.03;;;0.90;99.90;;;;;;5125148;27;20065;-55
2021/03/19 04:56:02;;;;;;;31.17;16.63;;;0.90;99.90;;;;;;5121317;27;20407;-54
2021/03/19 04:58:27;;;;;;;36.63;17.33;;;0.90;99.90;;;;;;5124853;27;20039;-57
2021/03/19 05:00:53;;;;;;;36.15;17.73;;;0.80;99.90;;;;;;5132869;27;20015;-54
2021/03/19 05:03:18;;;;;;;31.57;16.37;;;0.80;99.90;;;;;;5114539;27;20492;-54
2021/03/19 05:05:44;;;;;;;28.63;16.83;;;0.80;99.90;;;;;;5130856;27;20096;-52
2021/03/19 05:08:10;;;;;;;27.60;15.77;;;0.70;99.90;;;;;;5122471;27;20030;-56
2021/03/19 05:10:37;;;;;;;30.63;16.17;;;0.70;99.90;;;;;;5129543;27;20047;-53
2021/03/19 05:13:05;;;;;;;30.33;16.60;;;0.70;99.90;;;;;;5122767;27;20099;-57
2021/03/19 05:15:31;;;;;;;27.27;15.73;;;0.70;99.90;;;;;;5129818;27;20034;-55
2021/03/19 05:17:57;;;;;;;27.97;15.13;;;0.70;99.90;;;;;;5121651;27;20023;-56
2021/03/19 05:20:24;;;;;;;27.40;15.63;;;0.70;99.90;;;;;;5128285;27;20095;-59
2021/03/19 05:22:50;;;;;;;28.50;16.97;;;0.80;99.90;;;;;;5128867;27;20046;-58
2021/03/19 05:25:20;;;;;;;31.52;15.73;;;0.90;99.90;;;;;;5126392;27;20149;-58
2021/03/19 05:27:45;;;;;;;26.33;14.50;;;0.90;99.90;;;;;;5123070;27;20023;-54
2021/03/19 05:30:14;;;;;;;30.17;16.65;;;0.90;99.90;;;;;;5128111;27;20031;-53
2021/03/19 05:32:40;;;;;;;26.93;14.97;;;0.90;99.90;;;;;;5122226;27;20079;-56
2021/03/19 05:35:08;;;;;;;27.77;17.25;;;0.80;99.90;;;;;;5124501;27;20031;-54
2021/03/19 05:37:33;;;;;;;25.08;13.38;;;0.80;99.90;;;;;;5121769;27;20031;-54
2021/03/19 05:39:59;;;;;;;23.75;13.85;;;0.90;99.90;;;;;;5128940;27;20019;-55
2021/03/19 05:42:29;;;;;;;23.23;13.30;;;0.80;99.90;;;;;;5123855;27;20031;-56
2021/03/19 05:45:03;;;;;;;23.30;11.70;;;0.80;99.90;;;;;;5134824;27;20015;-57
2021/03/19 05:47:29;;;;;;;;;;;0.80;99.90;;;;;;5118628;27;20015;-54
2021/03/19 05:50:00;;;;;;;21.05;12.48;;;0.80;99.90;;;;;;5133308;27;19946;-56
2021/03/19 05:52:33;;;;;;;22.77;12.57;;;0.90;99.90;;;;;;5129776;27;20092;-54
2021/03/19 05:54:58;;;;;;;20.50;12.90;;;0.90;99.90;;;;;;5121503;27;20055;-55
2021/03/19 05:57:32;;;;;;;24.95;12.65;;;0.90;99.90;;;;;;5126510;27;20054;-56
2021/03/19 06:00:00;;;;;;;23.38;12.32;;;1.00;99.90;;;;;;5130631;27;20063;-57
2021/03/19 06:02:30;;;;;;;20.38;12.43;;;1.00;99.90;;;;;;5123714;27;20024;-57
2021/03/19 06:05:14;;;;;;;21.02;10.75;;;1.00;99.90;;;;;;5126421;27;20127;-57
2021/03/19 06:07:39;;;;;;;20.63;11.57;;;1.00;99.90;;;;;;5128199;27;20027;-56
2021/03/19 06:10:17;;;;;;;18.80;10.50;;;1.10;99.90;;;;;;5130618;27;20034;-57
2021/03/19 06:12:42;;;;;;;19.38;10.93;;;1.20;99.90;;;;;;5120046;27;20043;-56
2021/03/19 06:15:45;;;;;;;20.98;10.48;;;1.30;99.90;;;;;;5128013;27;20100;-56
2021/03/19 06:18:31;;;;;;;19.13;11.63;;;1.30;99.90;;;;;;5113069;27;20100;-55
2021/03/19 06:21:30;;;;;;;21.48;10.88;;;1.30;99.90;;;;;;5125398;27;20072;-57
2021/03/19 06:24:03;;;;;;;20.45;10.52;;;1.30;99.90;;;;;;5121379;27;20383;-54
2021/03/19 06:26:36;;;;;;;18.33;10.73;;;1.30;99.90;;;;;;5124185;27;20698;-55
2021/03/19 06:29:20;;;;;;;18.30;10.35;;;1.40;99.90;;;;;;5120229;27;20091;-57
2021/03/19 06:32:13;;;;;;;23.90;10.68;;;1.40;99.90;;;;;;5114797;27;20035;-59
2021/03/19 06:35:16;;;;;;;19.58;9.43;;;1.40;99.90;;;;;;5128202;27;20046;-53
2021/03/19 06:37:48;;;;;;;16.98;9.52;;;1.50;99.90;;;;;;5116765;27;20031;-56
2021/03/19 06:40:16;;;;;;;16.35;9.95;;;1.50;99.90;;;;;;5127759;27;20027;-55
2021/03/19 06:42:42;;;;;;;17.38;9.95;;;1.60;99.90;;;;;;5125237;27;20061;-58
2021/03/19 06:45:21;;;;;;;22.40;10.85;;;1.70;99.90;;;;;;5123836;27;20447;-57
2021/03/19 06:47:56;;;;;;;15.68;10.10;;;1.80;99.90;;;;;;5120211;27;20480;-57
2021/03/19 06:50:21;;;;;;;19.50;10.23;;;1.90;99.90;;;;;;5126557;27;20527;-56
2021/03/19 06:52:47;;;;;;;13.90;9.15;;;2.50;99.90;;;;;;5131602;27;20033;-54
2021/03/19 06:55:33;;;;;;;14.98;8.85;;;3.70;99.90;;;;;;5125321;27;20080;-55
2021/03/19 06:57:59;;;;;;;13.73;8.75;;;4.70;99.90;;;;;;5117642;27;20039;-57
2021/03/19 07:00:42;;;;;;;15.65;9.05;;;5.70;99.90;;;;;;5118451;27;20104;-54
2021/03/19 07:03:36;;;;;;;13.85;9.65;;;6.50;99.90;;;;;;5122405;27;20080;-57
2021/03/19 07:06:26;;;;;;;12.88;8.02;;;7.50;99.90;;;;;;5122992;27;20395;-56
2021/03/19 07:09:37;;;;;;;14.90;9.02;;;8.20;99.50;;;;;;5128889;27;20514;-56
2021/03/19 07:12:24;;;;;;;36.10;22.60;;;8.90;97.50;;;;;;5121072;27;20459;-56
2021/03/19 07:14:54;;;;;;;14.88;8.85;;;9.10;98.30;;;;;;5127175;27;20547;-56
2021/03/19 07:17:45;;;;;;;231.90;106.85;;;9.50;96.60;;;;;;5111479;27;20598;-57
2021/03/19 07:20:58;;;;;;;19.10;11.15;;;9.80;95.60;;;;;;5124507;27;20035;-57
2021/03/19 07:23:49;;;;;;;15.65;9.15;;;10.30;93.50;;;;;;5098347;27;20038;-53
2021/03/19 07:26:23;;;;;;;16.63;8.40;;;9.10;95.00;;;;;;5112813;27;20031;-54
2021/03/19 07:29:07;;;;;;;13.98;9.82;;;7.80;98.00;;;;;;5126110;27;20520;-54
2021/03/19 07:31:53;;;;;;;14.20;8.10;;;6.30;99.90;;;;;;5124053;27;20037;-54
2021/03/19 07:34:25;;;;;;;14.15;8.95;;;5.50;99.90;;;;;;5124442;27;20119;-56
2021/03/19 07:36:50;;;;;;;17.73;9.10;;;4.90;99.90;;;;;;5124292;27;20365;-55
2021/03/19 07:39:38;;;;;;;17.27;10.25;;;4.50;99.90;;;;;;5125233;27;20052;-57
2021/03/19 07:42:16;;;;;;;17.05;9.98;;;4.30;99.90;;;;;;5124340;27;20523;-56
2021/03/19 07:45:06;;;;;;;17.67;9.57;;;4.10;99.90;;;;;;5130535;27;20073;-58
2021/03/19 07:47:37;;;;;;;17.17;10.80;;;4.10;99.90;;;;;;5125333;27;20050;-57
2021/03/19 07:50:24;;;;;;;17.58;9.95;;;4.00;99.90;;;;;;5120216;27;20634;-56
2021/03/19 07:53:22;;;;;;;17.88;9.75;;;4.00;99.90;;;;;;5120457;27;20106;-53
2021/03/19 07:56:02;;;;;;;17.95;9.20;;;4.00;99.90;;;;;;5116006;27;20068;-59
2021/03/19 07:59:06;;;;;;;17.88;9.65;;;4.00;99.90;;;;;;5131665;27;20024;-57
2021/03/19 08:01:55;;;;;;;16.88;10.45;;;4.20;99.90;;;;;;5123639;27;20031;-59
2021/03/19 08:04:30;;;;;;;20.80;9.98;;;4.30;99.90;;;;;;5125018;27;20026;-59
2021/03/19 08:07:20;;;;;;;19.83;9.10;;;4.30;99.90;;;;;;5122406;27;20110;-57
2021/03/19 08:09:55;;;;;;;19.13;10.18;;;4.50;99.90;;;;;;5122667;27;20027;-59
2021/03/19 08:12:42;;;;;;;15.50;9.18;;;4.70;99.90;;;;;;5122580;27;20028;-56
2021/03/19 08:15:50;;;;;;;16.42;9.68;;;4.50;99.90;;;;;;5125304;27;20042;-56
2021/03/19 08:18:33;;;;;;;15.52;8.73;;;4.60;99.90;;;;;;5122809;27;20088;-56
2021/03/19 08:21:09;;;;;;;15.23;7.97;;;5.00;99.90;;;;;;5113915;27;20028;-57
2021/03/19 08:23:39;;;;;;;14.23;7.82;;;5.40;99.90;;;;;;5120951;27;20023;-56
2021/03/19 08:26:29;;;;;;;14.77;8.05;;;5.90;99.90;;;;;;5135340;27;20030;-59
2021/03/19 08:29:13;;;;;;;15.38;8.50;;;6.20;99.90;;;;;;5122399;27;20038;-56
2021/03/19 08:32:01;;;;;;;12.02;7.32;;;6.50;99.90;;;;;;5119274;27;20027;-58
2021/03/19 08:35:00;;;;;;;12.15;7.03;;;7.60;99.90;;;;;;5122649;27;20519;-56
2021/03/19 08:37:40;;;;;;;10.75;7.00;;;8.10;98.60;;;;;;5118706;27;20564;-57
2021/03/19 08:40:16;;;;;;;11.07;6.80;;;8.50;96.00;;;;;;5126286;27;20023;-56
2021/03/19 08:42:46;;;;;;;8.90;5.85;;;8.60;95.30;;;;;;5115846;27;20591;-58
2021/03/19 08:45:20;;;;;;;16.10;6.60;;;8.50;95.50;;;;;;5123395;27;20503;-57
2021/03/19 08:47:49;;;;;;;10.05;6.47;;;8.70;95.10;;;;;;5111243;27;20026;-58
2021/03/19 08:50:25;;;;;;;10.00;6.05;;;8.90;94.30;;;;;;5123723;27;20034;-58
2021/03/19 08:53:06;;;;;;;9.00;5.65;;;8.90;93.40;;;;;;5122680;27;20551;-56
2021/03/19 08:55:35;;;;;;;11.98;5.95;;;9.00;92.30;;;;;;5122860;27;20393;-59
2021/03/19 08:58:29;;;;;;;10.25;5.93;;;8.80;93.90;;;;;;5128839;27;20023;-54
2021/03/19 09:01:05;;;;;;;10.13;6.00;;;9.30;92.60;;;;;;5125374;27;20395;-57
2021/03/19 09:03:37;;;;;;;9.10;5.93;;;9.40;91.30;;;;;;5126714;27;20279;-56
2021/03/19 09:06:05;;;;;;;8.98;5.72;;;9.30;91.80;;;;;;5132472;27;20019;-60
2021/03/19 09:08:43;;;;;;;8.10;5.15;;;9.40;93.50;;;;;;5121585;27;20023;-58
2021/03/19 09:11:43;;;;;;;7.38;5.13;;;9.40;92.70;;;;;;5122910;27;20511;-58
2021/03/19 09:14:08;;;;;;;5.97;4.47;;;8.90;92.30;;;;;;5130446;27;20039;-57
2021/03/19 09:16:51;;;;;;;6.35;4.05;;;8.70;91.50;;;;;;5127344;27;20046;-57
2021/03/19 09:19:40;;;;;;;7.55;4.40;;;8.40;92.60;;;;;;5113907;27;20101;-58
2021/03/19 09:22:21;;;;;;;7.78;4.43;;;8.40;92.30;;;;;;5118306;27;20016;-55
2021/03/19 09:25:08;;;;;;;6.47;4.10;;;8.40;92.00;;;;;;5123728;27;20080;-54
2021/03/19 09:27:37;;;;;;;7.20;4.35;;;7.90;94.70;;;;;;5124892;27;20641;-56
2021/03/19 09:30:20;;;;;;;7.88;4.40;;;8.30;93.40;;;;;;5116221;27;20453;-56
2021/03/19 09:32:49;;;;;;;12.13;5.25;;;8.50;92.40;;;;;;5120061;27;20079;-58
2021/03/19 09:35:33;;;;;;;8.30;4.78;;;8.10;92.60;;;;;;5121822;27;20032;-57
2021/03/19 09:37:59;;;;;;;7.88;4.20;;;8.10;92.30;;;;;;5122447;27;20019;-56
2021/03/19 09:40:49;;;;;;;8.15;4.53;;;8.00;91.80;;;;;;5123054;27;20032;-60
2021/03/19 09:43:39;;;;;;;6.05;4.07;;;7.60;93.20;;;;;;5127487;27;20056;-57
2021/03/19 09:46:26;;;;;;;7.70;4.13;;;7.60;93.30;;;;;;5126603;27;20034;-58
2021/03/19 09:49:05;;;;;;;5.13;3.05;;;7.40;93.30;;;;;;5124774;27;20741;-57
2021/03/19 09:51:44;;;;;;;9.23;4.30;;;7.20;92.00;;;;;;5127540;27;20028;-58
2021/03/19 09:54:23;;;;;;;6.90;3.55;;;7.30;93.00;;;;;;5126141;27;20026;-57
2021/03/19 09:56:49;;;;;;;9.55;3.78;;;7.30;93.60;;;;;;5124654;27;20027;-58
2021/03/19 09:59:22;;;;;;;6.70;3.40;;;7.20;93.00;;;;;;5131772;27;20121;-56
2021/03/19 10:01:49;;;;;;;5.80;3.23;;;7.40;94.00;;;;;;5122602;27;20015;-57
2021/03/19 10:04:35;;;;;;;6.18;3.10;;;7.60;92.30;;;;;;5128899;27;20078;-55
2021/03/19 10:07:12;;;;;;;5.05;3.25;;;7.00;90.70;;;;;;5125526;27;21516;-59
2021/03/19 10:09:49;;;;;;;6.63;2.90;;;6.60;92.70;;;;;;5126575;27;20074;-58
2021/03/19 10:12:22;;;;;;;3.88;2.38;;;6.50;92.80;;;;;;5127875;27;20027;-55
2021/03/19 10:14:51;;;;;;;3.95;2.45;;;6.70;93.00;;;;;;5126717;27;20389;-58
2021/03/19 10:17:30;;;;;;;3.92;2.65;;;6.80;92.50;;;;;;5133687;27;20027;-59
2021/03/19 10:19:59;;;;;;;3.72;2.50;;;7.00;91.20;;;;;;5137523;27;20480;-59
2021/03/19 10:22:29;;;;;;;4.57;2.72;;;6.70;89.80;;;;;;5124062;27;20022;-54
2021/03/19 10:24:55;;;;;;;4.45;2.40;;;6.80;92.80;;;;;;5127817;27;20480;-57
2021/03/19 10:27:21;;;;;;;3.97;2.70;;;7.00;92.20;;;;;;5124370;27;20049;-58
2021/03/19 10:29:49;;;;;;;7.72;2.60;;;7.20;92.30;;;;;;5124055;27;20026;-55
2021/03/19 10:32:19;;;;;;;6.10;2.50;;;7.40;91.00;;;;;;5128972;27;20019;-56
2021/03/19 10:34:45;;;;;;;5.00;2.58;;;7.30;90.80;;;;;;5125262;27;20031;-55
2021/03/19 10:37:37;;;;;;;4.40;2.22;;;7.30;89.80;;;;;;5115897;27;20690;-58
2021/03/19 10:40:17;;;;;;;4.07;2.55;;;7.30;93.00;;;;;;5117809;27;20515;-57
2021/03/19 10:43:14;;;;;;;3.33;2.03;;;7.50;90.30;;;;;;5114051;27;20039;-58
2021/03/19 10:45:47;;;;;;;3.28;2.00;;;7.40;91.60;;;;;;5124259;27;20050;-57
2021/03/19 10:48:42;;;;;;;4.22;2.22;;;7.70;91.90;;;;;;5113024;27;20024;-57
2021/03/19 10:51:19;;;;;;;5.30;2.85;;;7.80;86.70;;;;;;5129652;27;20117;-57
2021/03/19 10:53:55;;;;;;;3.53;1.85;;;8.10;86.50;;;;;;5117960;27;20016;-57
2021/03/19 10:56:22;;;;;;;2.97;2.00;;;8.30;85.90;;;;;;5129760;27;20030;-58
2021/03/19 10:58:55;;;;;;;3.75;2.13;;;8.30;84.50;;;;;;5130145;27;20059;-59
2021/03/19 11:01:35;;;;;;;3.47;2.13;;;8.30;86.30;;;;;;5104548;27;20039;-56
2021/03/19 11:04:25;;;;;;;4.22;2.08;;;8.20;86.20;;;;;;5102496;28;20020;-57
2021/03/19 11:06:52;;;;;;;8.68;2.50;;;8.20;86.00;;;;;;5095178;28;20019;-56
2021/03/19 11:09:25;;;;;;;3.28;1.70;;;8.10;87.00;;;;;;5107564;28;20019;-58
2021/03/19 11:11:56;;;;;;;7.18;2.30;;;8.00;85.70;;;;;;5116036;27;20028;-56
2021/03/19 11:14:27;;;;;;;3.58;1.88;;;7.90;84.40;;;;;;5106015;27;20099;-58
2021/03/19 11:16:56;;;;;;;2.60;1.75;;;7.70;83.90;;;;;;5105186;28;20038;-57
2021/03/19 11:19:28;;;;;;;4.18;2.22;;;7.70;84.30;;;;;;5100794;28;20031;-58
2021/03/19 11:22:06;;;;;;;4.05;1.40;;;8.10;86.00;;;;;;5100167;28;20485;-57
2021/03/19 11:24:37;;;;;;;4.57;1.70;;;8.20;89.30;;;;;;5102536;28;20040;-57
2021/03/19 11:27:19;;;;;;;5.15;2.50;;;8.50;85.90;;;;;;5099544;28;20020;-59
2021/03/19 11:29:46;;;;;;;3.78;2.15;;;8.80;85.70;;;;;;5100942;28;20035;-58
2021/03/19 11:32:15;;;;;;;6.70;2.22;;;8.80;82.60;;;;;;5097745;28;20031;-56
2021/03/19 11:34:52;;;;;;;4.53;2.30;;;8.80;82.40;;;;;;5105087;28;20047;-58
2021/03/19 11:37:27;;;;;;;3.35;1.42;;;8.50;84.20;;;;;;5099612;27;20504;-60
2021/03/19 11:40:08;;;;;;;2.83;1.98;;;8.50;82.00;;;;;;5108435;28;20028;-58
2021/03/19 11:42:33;;;;;;;4.13;1.88;;;8.00;81.70;;;;;;5111372;27;20038;-58
2021/03/19 11:45:05;;;;;;;4.22;1.88;;;7.90;82.60;;;;;;5110869;27;20020;-57
2021/03/19 11:47:34;;;;;;;3.40;1.95;;;7.90;87.10;;;;;;5107350;27;20055;-58
2021/03/19 11:50:21;;;;;;;4.03;2.60;;;8.20;86.50;;;;;;5102756;28;20112;-58
2021/03/19 11:52:48;;;;;;;3.38;1.95;;;8.20;82.40;;;;;;5106874;28;20067;-60
2021/03/19 11:55:25;;;;;;;3.13;1.90;;;8.00;85.00;;;;;;5107013;28;20088;-54
2021/03/19 11:57:51;;;;;;;3.22;1.95;;;7.60;86.80;;;;;;5102383;28;20016;-58
2021/03/19 12:00:22;;;;;;;4.43;1.95;;;7.30;88.70;;;;;;5108846;27;20156;-59
2021/03/19 12:02:50;;;;;;;5.85;2.60;;;7.00;90.60;;;;;;5098530;27;20040;-58
2021/03/19 12:05:19;;;;;;;5.78;2.58;;;7.10;91.80;;;;;;5110788;27;20030;-58
2021/03/19 12:07:45;;;;;;;4.97;2.17;;;7.30;91.80;;;;;;5101460;27;20505;-55
2021/03/19 12:10:12;;;;;;;2.65;2.30;;;7.50;92.30;;;;;;5108262;28;20027;-57
2021/03/19 12:12:37;;;;;;;3.97;2.25;;;7.60;90.30;;;;;;5101785;28;20027;-58
2021/03/19 12:15:04;;;;;;;5.30;2.15;;;7.50;87.70;;;;;;5107990;27;20496;-58
2021/03/19 12:17:30;;;;;;;3.22;2.00;;;7.40;87.70;;;;;;5098714;28;20103;-58
2021/03/19 12:19:55;;;;;;;3.90;1.88;;;7.40;91.10;;;;;;5107975;27;20464;-59
2021/03/19 12:22:22;;;;;;;16.35;6.65;;;7.50;86.90;;;;;;5106291;27;20024;-57
2021/03/19 12:24:47;;;;;;;2.58;1.60;;;7.50;88.50;;;;;;5106708;27;20024;-57
2021/03/19 12:27:14;;;;;;;3.72;1.95;;;7.50;83.90;;;;;;5098789;28;20023;-56
2021/03/19 12:29:40;;;;;;;2.95;1.63;;;7.30;84.70;;;;;;5110912;28;20018;-58
2021/03/19 12:32:06;;;;;;;8.80;1.92;;;7.30;86.60;;;;;;5102554;28;20020;-54
2021/03/19 12:34:33;;;;;;;3.75;2.00;;;7.40;84.80;;;;;;5112731;27;20046;-59
2021/03/19 12:36:58;;;;;;;3.60;1.75;;;7.50;89.90;;;;;;5104690;28;20036;-56
2021/03/19 12:39:24;;;;;;;5.90;1.80;;;7.70;87.30;;;;;;5094624;28;20028;-57
2021/03/19 12:41:49;;;;;;;3.67;1.38;;;7.70;83.00;;;;;;5100513;27;20512;-57
2021/03/19 12:44:16;;;;;;;8.95;3.58;;;7.70;82.60;;;;;;5103551;28;20020;-57
2021/03/19 12:46:41;;;;;;;3.88;2.85;;;7.70;82.80;;;;;;5104257;28;20047;-57
2021/03/19 12:49:08;;;;;;;2.83;1.98;;;7.50;85.00;;;;;;5101165;28;20451;-57
2021/03/19 12:51:34;;;;;;;4.30;1.80;;;7.40;83.50;;;;;;5098742;28;20047;-57
2021/03/19 12:54:01;;;;;;;4.25;1.60;;;7.30;82.70;;;;;;5098174;28;20031;-57
2021/03/19 12:56:27;;;;;;;3.13;1.60;;;7.30;83.20;;;;;;5103440;28;20030;-59
2021/03/19 12:58:52;;;;;;;2.17;1.60;;;7.40;82.20;;;;;;5108107;28;20063;-60
2021/03/19 13:01:19;;;;;;;2.72;1.50;;;7.70;82.70;;;;;;5111943;28;20054;-59
2021/03/19 13:03:46;;;;;;;2.42;1.40;;;8.00;84.90;;;;;;5100800;28;20035;-59
2021/03/19 13:06:11;;;;;;;2.53;1.77;;;8.20;82.80;;;;;;5106427;28;20385;-59
2021/03/19 13:08:37;;;;;;;3.58;1.55;;;8.10;82.60;;;;;;5095228;27;20039;-57
2021/03/19 13:11:03;;;;;;;3.97;1.67;;;8.10;83.00;;;;;;5106862;28;20496;-60
2021/03/19 13:13:29;;;;;;;5.53;1.27;;;7.80;80.20;;;;;;5100893;28;20023;-54
2021/03/19 13:15:55;;;;;;;3.03;1.50;;;7.70;79.50;;;;;;5108828;28;20028;-56
2021/03/19 13:18:21;;;;;;;5.10;2.47;;;7.60;85.70;;;;;;5101010;28;20024;-55
2021/03/19 13:20:47;;;;;;;1.95;1.10;;;7.60;77.80;;;;;;5109350;28;20030;-60